Puerto Banus, Marbella

>

This is an optional block (switch it off / on) in the settings - file ($SITE['banners'] = false;)

You can display ads, any other important text or photo’s using text / html or PHP code.

You can place one or more at the top and or bottom and it can all be different for content / size .



Meteosat more information blitzortung!


Radar lluvias  rain snow radar


Visita nuestra red de sitios de meteo:

Documentation for the template used

MeteoibericaRed estaciones Meteorologicas

MeteoclimaticRed estaciones Meteorologicas



Sin Advertencias climatologicas .En este momento tenemos Nivel Verde.    No hay Alarmas

Pagina Historial Weather Underground texto

Diario Resumen January 24, 2018 Unidades:  Métrico    impérial   Tanto
« Anterior Dia
Siguiente Dia »
Diario Semana Mensual Anual Personalizada
  Actual: Maxima: Minima: Media:
Temperatura: 12.4 °C 12.4 °C 9.5 °C 10.4 °C
Punto de rocío: 9.2 °C 9.7 °C 6.8 °C 7.9 °C
Humedad: 81 % 87 % 81 % 85 %
Velocidad del Viento: 9.3 km/h 14.8 km/h 0.0 km/h 8.1 km/h
Ráfagas de viento: 9.3 km/h 14.8 km/h - -
Viento:North - - NNW
Pression baro: 1027.7 hPa 1027.7 hPa 1026.0 hPa -
Précipitaciones: 0.0 mm      
Historical Graphs
 
 
Datos de tabla para January 24, 2018
Tiempo Temperatura Punto de rocío Pression baro Viento Velocidad del Viento Ráfagas de viento Humedad Las precipitaciones Rate ( Hora )
00:04 11.9 °C 9.6 °C 1027.0 hPa NNW 7.4 km/h 7.4 km/h 86 % 0.0 mm
00:09 11.9 °C 9.7 °C 1027.0 hPa North 11.1 km/h 11.1 km/h 86 % 0.0 mm
00:14 11.9 °C 9.4 °C 1027.0 hPa North 11.1 km/h 11.1 km/h 85 % 0.0 mm
00:19 11.8 °C 9.3 °C 1027.0 hPa North 7.4 km/h 7.4 km/h 85 % 0.0 mm
00:24 11.8 °C 9.3 °C 1027.0 hPa NNW 5.6 km/h 5.6 km/h 85 % 0.0 mm
00:29 11.8 °C 9.3 °C 1027.0 hPa NNW 11.1 km/h 11.1 km/h 85 % 0.0 mm
00:34 11.8 °C 9.3 °C 1027.0 hPa North 11.1 km/h 11.1 km/h 85 % 0.0 mm
00:39 11.8 °C 9.3 °C 1027.0 hPa North 9.7 km/h 9.7 km/h 85 % 0.0 mm
00:54 11.4 °C 9.0 °C 1026.6 hPa North 6.4 km/h 6.4 km/h 85 % 0.0 mm
00:59 11.5 °C 9.1 °C 1026.6 hPa North 5.6 km/h 5.6 km/h 85 % 0.0 mm
01:04 11.5 °C 9.1 °C 1026.6 hPa North 6.4 km/h 6.4 km/h 85 % 0.0 mm
01:09 11.6 °C 9.3 °C 1026.6 hPa NNW 7.4 km/h 7.4 km/h 86 % 0.0 mm
01:14 11.5 °C 9.1 °C 1026.6 hPa North 8.0 km/h 8.0 km/h 85 % 0.0 mm
01:19 11.3 °C 8.8 °C 1026.6 hPa North 8.0 km/h 8.0 km/h 85 % 0.0 mm
01:24 11.1 °C 8.7 °C 1026.6 hPa North 9.3 km/h 9.3 km/h 85 % 0.0 mm
01:29 10.9 °C 8.5 °C 1026.6 hPa North 11.1 km/h 11.1 km/h 85 % 0.0 mm
01:34 10.8 °C 8.6 °C 1026.3 hPa North 11.1 km/h 11.1 km/h 86 % 0.0 mm
01:39 10.7 °C 8.5 °C 1026.3 hPa North 11.1 km/h 11.1 km/h 86 % 0.0 mm
01:44 10.7 °C 8.4 °C 1026.3 hPa North 9.3 km/h 9.3 km/h 86 % 0.0 mm
01:59 10.6 °C 8.6 °C 1026.3 hPa North 8.0 km/h 8.0 km/h 87 % 0.0 mm
02:04 10.6 °C 8.6 °C 1026.3 hPa North 8.0 km/h 8.0 km/h 87 % 0.0 mm
02:09 10.7 °C 8.6 °C 1026.3 hPa North 9.7 km/h 9.7 km/h 87 % 0.0 mm
02:19 10.6 °C 8.6 °C 1026.3 hPa North 7.4 km/h 7.4 km/h 87 % 0.0 mm
02:24 10.6 °C 8.5 °C 1026.3 hPa North 8.0 km/h 8.0 km/h 87 % 0.0 mm
02:29 10.5 °C 8.4 °C 1026.3 hPa North 6.4 km/h 6.4 km/h 87 % 0.0 mm
02:34 10.4 °C 8.4 °C 1026.3 hPa North 8.0 km/h 8.0 km/h 87 % 0.0 mm
02:39 10.4 °C 8.3 °C 1026.3 hPa North 6.4 km/h 6.4 km/h 87 % 0.0 mm
02:44 10.3 °C 8.3 °C 1026.3 hPa North 5.6 km/h 5.6 km/h 87 % 0.0 mm
02:49 10.3 °C 8.3 °C 1026.3 hPa North 5.6 km/h 5.6 km/h 87 % 0.0 mm
02:59 10.4 °C 8.4 °C 1026.3 hPa North 5.6 km/h 5.6 km/h 87 % 0.0 mm
03:04 10.5 °C 8.4 °C 1026.3 hPa North 5.6 km/h 5.6 km/h 87 % 0.0 mm
03:09 10.6 °C 8.5 °C 1026.3 hPa North 3.7 km/h 3.7 km/h 87 % 0.0 mm
03:14 10.6 °C 8.5 °C 1026.3 hPa North 3.7 km/h 3.7 km/h 87 % 0.0 mm
03:29 10.6 °C 8.6 °C 1026.3 hPa Calm     87 % 0.0 mm
03:34 10.6 °C 8.6 °C 1026.3 hPa North 1.9 km/h 1.9 km/h 87 % 0.0 mm
03:39 10.6 °C 8.4 °C 1026.0 hPa North 5.6 km/h 5.6 km/h 86 % 0.0 mm
03:44 10.6 °C 8.4 °C 1026.0 hPa North 5.6 km/h 5.6 km/h 86 % 0.0 mm
03:49 10.7 °C 8.4 °C 1026.0 hPa North 1.9 km/h 2.3 km/h 86 % 0.0 mm
04:00 10.7 °C 8.5 °C 1026.0 hPa North 1.9 km/h 1.9 km/h 86 % 0.0 mm
04:05 10.7 °C 8.5 °C 1026.0 hPa North 3.7 km/h 3.7 km/h 86 % 0.0 mm
04:10 10.8 °C 8.6 °C 1026.3 hPa Calm     86 % 0.0 mm
04:15 10.7 °C 8.5 °C 1026.0 hPa North 3.7 km/h 3.7 km/h 86 % 0.0 mm
04:20 10.6 °C 8.2 °C 1026.0 hPa North 3.2 km/h 3.2 km/h 85 % 0.0 mm
04:30 10.6 °C 8.1 °C 1026.0 hPa North 5.6 km/h 5.6 km/h 85 % 0.0 mm
04:35 10.6 °C 8.1 °C 1026.0 hPa North 5.6 km/h 5.6 km/h 85 % 0.0 mm
04:40 10.6 °C 8.2 °C 1026.0 hPa North 6.4 km/h 6.4 km/h 85 % 0.0 mm
04:45 10.7 °C 8.3 °C 1026.0 hPa NNW 6.4 km/h 6.4 km/h 85 % 0.0 mm
04:56 10.7 °C 8.2 °C 1026.0 hPa NNW 5.6 km/h 5.6 km/h 85 % 0.0 mm
05:01 10.4 °C 7.8 °C 1026.0 hPa NNW 7.4 km/h 7.4 km/h 84 % 0.0 mm
05:06 10.4 °C 7.8 °C 1026.0 hPa NNW 5.6 km/h 5.6 km/h 84 % 0.0 mm
05:11 10.4 °C 7.8 °C 1026.0 hPa NNW 5.6 km/h 5.6 km/h 84 % 0.0 mm
05:21 10.2 °C 7.6 °C 1026.0 hPa NNW 5.6 km/h 5.6 km/h 84 % 0.0 mm
05:26 10.2 °C 7.6 °C 1026.0 hPa NNW 5.6 km/h 5.6 km/h 84 % 0.0 mm
05:31 10.1 °C 7.6 °C 1026.0 hPa NNW 4.8 km/h 4.8 km/h 84 % 0.0 mm
05:36 10.1 °C 7.5 °C 1026.0 hPa NNW 5.6 km/h 5.6 km/h 84 % 0.0 mm
05:41 10.0 °C 7.4 °C 1026.0 hPa NNW 3.7 km/h 3.7 km/h 84 % 0.0 mm
05:46 10.0 °C 7.4 °C 1026.0 hPa NNW 1.9 km/h   84 % 0.0 mm
05:56 9.9 °C 7.4 °C 1026.0 hPa NNW 3.7 km/h 3.7 km/h 84 % 0.0 mm
06:01 9.9 °C 7.3 °C 1026.0 hPa NNW 1.9 km/h 1.9 km/h 84 % 0.0 mm
06:06 9.9 °C 7.3 °C 1026.0 hPa NNW 3.7 km/h 3.7 km/h 84 % 0.0 mm
06:11 9.8 °C 7.2 °C 1026.0 hPa NNW 5.6 km/h 5.6 km/h 84 % 0.0 mm
06:16 9.7 °C 7.2 °C 1026.0 hPa North 5.6 km/h 5.6 km/h 84 % 0.0 mm
06:21 9.7 °C 7.1 °C 1026.0 hPa NNW 9.3 km/h 9.3 km/h 84 % 0.0 mm
06:26 9.7 °C 7.1 °C 1026.3 hPa North 9.3 km/h 9.3 km/h 84 % 0.0 mm
06:31 9.6 °C 7.1 °C 1026.3 hPa North 7.4 km/h 7.4 km/h 84 % 0.0 mm
06:36 9.6 °C 7.0 °C 1026.3 hPa North 5.6 km/h 5.6 km/h 84 % 0.0 mm
06:41 9.6 °C 7.0 °C 1026.3 hPa NNW 9.3 km/h 9.3 km/h 84 % 0.0 mm
06:46 9.6 °C 7.1 °C 1026.3 hPa North 11.3 km/h 11.3 km/h 84 % 0.0 mm
06:51 9.6 °C 7.0 °C 1026.3 hPa North 7.4 km/h 7.4 km/h 84 % 0.0 mm
06:56 9.6 °C 7.0 °C 1026.3 hPa NNW 12.9 km/h 12.9 km/h 84 % 0.0 mm
07:06 9.6 °C 7.1 °C 1026.6 hPa North 9.3 km/h 9.3 km/h 84 % 0.0 mm
07:16 9.6 °C 7.1 °C 1026.6 hPa North 9.3 km/h 9.3 km/h 84 % 0.0 mm
07:26 9.8 °C 7.2 °C 1026.6 hPa North 11.1 km/h 11.1 km/h 84 % 0.0 mm
07:31 9.8 °C 7.0 °C 1026.6 hPa North 11.3 km/h 11.3 km/h 83 % 0.0 mm
07:36 9.8 °C 7.0 °C 1026.6 hPa NNW 11.1 km/h 11.1 km/h 83 % 0.0 mm
07:41 9.8 °C 7.0 °C 1026.6 hPa NNW 14.8 km/h 14.8 km/h 83 % 0.0 mm
07:46 9.7 °C 7.0 °C 1026.6 hPa NNW 11.3 km/h 11.3 km/h 83 % 0.0 mm
07:51 9.6 °C 6.9 °C 1026.6 hPa North 11.1 km/h 11.1 km/h 83 % 0.0 mm
07:56 9.6 °C 6.8 °C 1027.0 hPa NNW 13.0 km/h 13.0 km/h 83 % 0.0 mm
08:06 9.5 °C 6.8 °C 1027.0 hPa NNW 13.0 km/h 13.0 km/h 83 % 0.0 mm
08:11 9.6 °C 7.0 °C 1027.0 hPa North 13.0 km/h 13.0 km/h 84 % 0.0 mm
08:16 9.6 °C 6.8 °C 1027.0 hPa North 13.0 km/h 13.0 km/h 83 % 0.0 mm
08:21 9.5 °C 6.8 °C 1027.0 hPa NNW 11.1 km/h 11.1 km/h 83 % 0.0 mm
08:26 9.5 °C 6.8 °C 1027.0 hPa North 13.0 km/h 13.0 km/h 83 % 0.0 mm
08:31 9.6 °C 6.8 °C 1027.0 hPa North 11.3 km/h 11.3 km/h 83 % 0.0 mm
08:36 9.6 °C 6.8 °C 1027.0 hPa North 13.0 km/h 13.0 km/h 83 % 0.0 mm
08:41 9.6 °C 6.8 °C 1027.0 hPa North 14.8 km/h 14.8 km/h 83 % 0.0 mm
08:46 9.5 °C 6.8 °C 1027.0 hPa North 9.7 km/h 9.7 km/h 83 % 0.0 mm
08:51 9.5 °C 6.8 °C 1027.0 hPa North 13.0 km/h 13.0 km/h 83 % 0.0 mm
08:56 9.6 °C 6.8 °C 1027.3 hPa NNW 13.0 km/h 13.0 km/h 83 % 0.0 mm
09:01 9.6 °C 6.8 °C 1027.3 hPa North 13.0 km/h 13.0 km/h 83 % 0.0 mm
09:06 9.7 °C 6.9 °C 1027.3 hPa North 11.1 km/h 11.1 km/h 83 % 0.0 mm
09:21 9.9 °C 7.2 °C 1027.3 hPa North 13.0 km/h 13.0 km/h 83 % 0.0 mm
09:26 10.0 °C 7.2 °C 1027.3 hPa North 8.0 km/h 8.0 km/h 83 % 0.0 mm
09:31 10.2 °C 7.4 °C 1027.3 hPa North 11.1 km/h 11.1 km/h 83 % 0.0 mm
09:36 10.4 °C 7.4 °C 1027.3 hPa North 12.9 km/h 12.9 km/h 82 % 0.0 mm
09:41 10.7 °C 7.7 °C 1027.3 hPa North 11.1 km/h 11.1 km/h 82 % 0.0 mm
09:46 10.9 °C 7.9 °C 1027.3 hPa North 11.3 km/h 11.3 km/h 82 % 0.0 mm
09:51 11.1 °C 7.9 °C 1027.7 hPa North 9.3 km/h 9.3 km/h 81 % 0.0 mm
09:57 11.4 °C 8.3 °C 1027.7 hPa North 9.7 km/h 9.7 km/h 81 % 0.0 mm
10:02 11.7 °C 8.6 °C 1027.7 hPa North 7.4 km/h 7.4 km/h 81 % 0.0 mm
10:07 12.1 °C 8.9 °C 1027.7 hPa North 8.0 km/h 8.0 km/h 81 % 0.0 mm
10:12 12.4 °C 9.2 °C 1027.7 hPa North 9.3 km/h 9.3 km/h 81 % 0.0 mm
Puerto Banus, Marbella
Elogios de Weather Underground - 1.25 mb

Guión original por  Jim McMurry - jmcmurry@mwt.net Adaptado para la plantilla por  Wim van der Kuil - Leuven-Template.eu

Usted encontrará nuestra información del tiempo también en:

Weather Underground

Iberian Peninsula Weather Network